createdAt,value
2023-02-22T00:01:50.981Z,51.51
2023-02-22T00:04:21.213Z,51.81
2023-02-22T00:06:49.355Z,51.63
2023-02-22T00:09:20.700Z,52.29
2023-02-22T00:11:48.816Z,51.20
2023-02-22T00:14:20.412Z,51.43
2023-02-22T00:16:47.339Z,51.05
2023-02-22T00:19:14.027Z,50.93
2023-02-22T00:21:40.624Z,50.79
2023-02-22T00:24:23.107Z,50.34
2023-02-22T00:26:57.815Z,50.86
2023-02-22T00:29:25.306Z,50.24
2023-02-22T00:31:52.392Z,50.69
2023-02-22T00:34:19.237Z,51.09
2023-02-22T00:36:49.754Z,50.66
2023-02-22T00:39:16.667Z,50.89
2023-02-22T00:41:43.701Z,51.14
2023-02-22T00:44:10.666Z,51.55
2023-02-22T00:46:37.481Z,51.30
2023-02-22T00:49:05.365Z,52.01
2023-02-22T00:51:31.991Z,51.35
2023-02-22T00:53:58.623Z,50.87
2023-02-22T00:56:25.549Z,51.09
2023-02-22T00:58:52.105Z,52.06
2023-02-22T01:01:19.063Z,52.48
2023-02-22T01:03:46.055Z,52.69
2023-02-22T01:06:12.857Z,54.03
2023-02-22T01:08:45.101Z,53.12
2023-02-22T01:11:11.738Z,53.16
2023-02-22T01:13:38.723Z,56.18
2023-02-22T01:16:08.367Z,54.67
2023-02-22T01:18:38.057Z,54.66
2023-02-22T01:21:05.441Z,57.46
2023-02-22T01:23:32.239Z,54.73
2023-02-22T01:25:58.996Z,54.58
2023-02-22T01:28:25.721Z,54.76
2023-02-22T01:30:52.680Z,55.55
2023-02-22T01:33:19.300Z,55.39
2023-02-22T01:35:46.967Z,57.99
2023-02-22T01:38:14.447Z,57.76
2023-02-22T01:40:43.071Z,57.62
2023-02-22T01:43:31.123Z,60.85
2023-02-22T01:46:03.254Z,59.92
2023-02-22T01:48:29.764Z,60.62
2023-02-22T01:50:56.304Z,64.14
2023-02-22T01:53:32.420Z,63.50
2023-02-22T01:56:00.388Z,63.33
2023-02-22T01:58:30.008Z,66.54
2023-02-22T02:00:57.675Z,65.40
2023-02-22T02:03:29.780Z,66.09
2023-02-22T02:06:01.108Z,66.50
2023-02-22T02:08:49.834Z,65.46
2023-02-22T02:11:20.162Z,64.93
2023-02-22T02:13:49.685Z,65.12
2023-02-22T02:16:16.367Z,66.81
2023-02-22T02:18:43.104Z,68.60
2023-02-22T02:21:39.730Z,66.89
2023-02-22T02:24:24.345Z,65.10
2023-02-22T02:27:09.273Z,68.64
2023-02-22T02:29:56.040Z,66.92
2023-02-22T02:32:51.784Z,73.22
2023-02-22T02:35:43.703Z,76.32
2023-02-22T02:38:30.628Z,68.45
2023-02-22T02:41:13.765Z,68.31
2023-02-22T02:43:53.573Z,67.02
2023-02-22T02:46:31.776Z,68.98
2023-02-22T02:49:04.615Z,71.05
2023-02-22T02:51:38.912Z,70.75
2023-02-22T02:54:07.531Z,68.81
2023-02-22T02:56:34.894Z,68.84
2023-02-22T02:59:01.536Z,70.33
2023-02-22T03:02:00.579Z,72.37
2023-02-22T03:05:10.712Z,75.77
2023-02-22T03:08:01.680Z,75.30
2023-02-22T03:10:40.349Z,75.55
2023-02-22T03:13:40.253Z,76.47
2023-02-22T03:16:19.275Z,77.20
2023-02-22T03:19:05.046Z,78.65
2023-02-22T03:21:55.584Z,79.34
2023-02-22T03:24:28.665Z,78.78
2023-02-22T03:27:03.748Z,80.85
2023-02-22T03:29:36.733Z,82.49
2023-02-22T03:32:07.760Z,82.87
2023-02-22T03:34:38.725Z,84.73
2023-02-22T03:37:22.097Z,82.83
2023-02-22T03:39:54.218Z,83.94
2023-02-22T03:42:34.826Z,83.09
2023-02-22T03:45:05.188Z,82.58
2023-02-22T03:47:40.724Z,80.71
2023-02-22T03:50:15.798Z,81.74
2023-02-22T03:52:43.942Z,89.32
2023-02-22T03:55:12.773Z,87.16
2023-02-22T03:57:44.006Z,86.22
2023-02-22T04:00:14.845Z,87.66
2023-02-22T04:02:41.815Z,84.65
2023-02-22T04:05:08.870Z,84.88
2023-02-22T04:07:35.922Z,83.12
2023-02-22T04:10:03.708Z,89.26
2023-02-22T04:12:30.320Z,82.60
2023-02-22T04:14:56.927Z,80.67
2023-02-22T04:17:23.557Z,79.17
2023-02-22T04:19:50.290Z,78.86
2023-02-22T04:22:17.411Z,79.44
2023-02-22T04:24:44.111Z,78.76
2023-02-22T04:27:11.018Z,81.86
2023-02-22T04:29:37.642Z,84.40
2023-02-22T04:32:04.599Z,83.03
2023-02-22T04:34:31.182Z,79.93
2023-02-22T04:36:57.818Z,86.06
2023-02-22T04:39:24.544Z,95.76
2023-02-22T04:41:51.338Z,95.82
2023-02-22T04:44:17.916Z,90.84
2023-02-22T04:46:46.771Z,92.16
2023-02-22T04:49:13.608Z,89.34
2023-02-22T04:51:41.285Z,88.78
2023-02-22T04:54:08.511Z,90.13
2023-02-22T04:56:35.160Z,100.00
2023-02-22T04:59:01.945Z,100.00
2023-02-22T05:01:33.704Z,97.49
2023-02-22T05:04:02.971Z,97.17
2023-02-22T05:06:29.619Z,100.00
2023-02-22T05:08:56.298Z,97.75
2023-02-22T05:11:23.338Z,99.39
2023-02-22T05:13:50.374Z,97.05
2023-02-22T05:16:17.427Z,94.79
2023-02-22T05:18:44.060Z,96.26
2023-02-22T05:21:10.810Z,100.00
2023-02-22T05:23:37.445Z,100.00
2023-02-22T05:26:04.087Z,100.00
2023-02-22T05:28:30.705Z,97.87
2023-02-22T05:30:57.419Z,100.00
2023-02-22T05:33:24.090Z,100.00
2023-02-22T05:35:50.744Z,100.00
2023-02-22T05:38:17.364Z,94.60
2023-02-22T05:40:44.493Z,95.62
2023-02-22T05:43:11.117Z,75.31
2023-02-22T05:45:37.716Z,66.75
2023-02-22T05:48:04.614Z,61.63
2023-02-22T05:50:33.186Z,60.62
2023-02-22T05:52:59.959Z,53.13
2023-02-22T05:55:26.963Z,52.65
2023-02-22T05:57:53.808Z,51.65
2023-02-22T06:00:26.402Z,51.11
2023-02-22T06:03:08.166Z,49.24
2023-02-22T06:05:35.458Z,47.82
2023-02-22T06:08:03.310Z,47.42
2023-02-22T06:10:29.995Z,45.52
2023-02-22T06:12:57.491Z,47.86
2023-02-22T06:15:25.539Z,46.26
2023-02-22T06:17:52.889Z,45.62
2023-02-22T06:20:23.186Z,45.64
2023-02-22T06:22:53.700Z,45.65
2023-02-22T06:25:24.068Z,47.03
2023-02-22T06:27:51.054Z,48.26
2023-02-22T06:30:20.611Z,50.34
2023-02-22T06:32:47.291Z,51.21
2023-02-22T06:35:15.107Z,51.38
2023-02-22T06:37:41.727Z,53.39
2023-02-22T06:40:11.276Z,49.23
2023-02-22T06:42:39.095Z,49.31
2023-02-22T06:45:05.810Z,50.08
2023-02-22T06:47:32.530Z,51.57
2023-02-22T06:50:01.043Z,52.64
2023-02-22T06:52:27.723Z,54.70
2023-02-22T06:54:54.358Z,56.76
2023-02-22T06:57:21.038Z,55.22
2023-02-22T06:59:47.706Z,55.49
2023-02-22T07:02:15.048Z,57.39
2023-02-22T07:04:43.561Z,55.17
2023-02-22T07:07:10.686Z,52.93
2023-02-22T07:09:37.367Z,51.87
2023-02-22T07:12:04.120Z,51.87
2023-02-22T07:14:30.745Z,50.56
2023-02-22T07:16:57.361Z,50.67
2023-02-22T07:19:24.877Z,50.41
2023-02-22T07:21:57.033Z,51.56
2023-02-22T07:24:23.580Z,50.35
2023-02-22T07:26:50.138Z,49.90
2023-02-22T07:29:16.780Z,48.30
2023-02-22T07:31:43.433Z,48.71
2023-02-22T07:34:10.053Z,46.68
2023-02-22T07:36:36.604Z,46.87
2023-02-22T07:39:03.487Z,48.51
2023-02-22T07:41:30.119Z,48.37
2023-02-22T07:43:56.856Z,47.98
2023-02-22T07:46:23.455Z,47.63
2023-02-22T07:48:50.057Z,48.48
2023-02-22T07:51:18.223Z,49.25
2023-02-22T07:53:45.261Z,48.18
2023-02-22T07:56:11.982Z,48.08
2023-02-22T07:58:38.694Z,47.20
2023-02-22T08:01:05.547Z,48.02
2023-02-22T08:03:38.073Z,47.41
2023-02-22T08:06:06.614Z,47.54
2023-02-22T08:08:33.220Z,47.10
2023-02-22T08:10:59.870Z,47.20
2023-02-22T08:13:26.548Z,47.24
2023-02-22T08:15:54.457Z,48.11
2023-02-22T08:18:22.330Z,46.86
2023-02-22T08:20:52.129Z,46.27
2023-02-22T08:23:20.855Z,46.24
2023-02-22T08:25:47.473Z,46.16
2023-02-22T08:28:17.245Z,46.47
2023-02-22T08:30:44.061Z,46.92
2023-02-22T08:33:14.640Z,46.44
2023-02-22T08:35:41.429Z,45.96
2023-02-22T08:38:15.065Z,45.02
2023-02-22T08:40:41.658Z,44.17
2023-02-22T08:43:08.458Z,43.85
2023-02-22T08:45:35.133Z,43.79
2023-02-22T08:48:01.761Z,42.90
2023-02-22T08:50:31.140Z,42.77
2023-02-22T08:53:00.029Z,42.37
2023-02-22T08:55:32.301Z,41.97
2023-02-22T08:58:01.496Z,41.36
2023-02-22T09:00:30.753Z,40.89
2023-02-22T09:02:57.349Z,40.63
2023-02-22T09:05:23.978Z,40.87
2023-02-22T09:07:50.702Z,40.63
2023-02-22T09:10:21.003Z,41.30
2023-02-22T09:12:47.623Z,41.38
2023-02-22T09:15:15.498Z,41.44
2023-02-22T09:17:42.257Z,41.35
2023-02-22T09:20:10.129Z,40.76
2023-02-22T09:22:36.745Z,41.06
2023-02-22T09:25:15.849Z,41.47
2023-02-22T09:27:44.175Z,41.19
2023-02-22T09:30:34.234Z,40.73
2023-02-22T09:33:13.011Z,39.90
2023-02-22T09:35:46.489Z,40.65
2023-02-22T09:38:16.025Z,40.66
2023-02-22T09:40:54.364Z,40.76
2023-02-22T09:43:33.248Z,40.13
2023-02-22T09:46:21.441Z,39.53
2023-02-22T09:48:57.945Z,39.20
2023-02-22T09:51:29.037Z,39.82
2023-02-22T09:54:00.935Z,38.87
2023-02-22T09:56:29.989Z,39.26
2023-02-22T09:59:03.766Z,39.17
2023-02-22T10:01:39.147Z,38.93
2023-02-22T10:04:22.136Z,39.80
2023-02-22T10:07:15.770Z,38.36
2023-02-22T10:09:43.575Z,39.02
2023-02-22T10:12:53.316Z,39.22
2023-02-22T10:15:37.992Z,39.42
2023-02-22T10:18:26.334Z,39.31
2023-02-22T10:21:14.555Z,38.86
2023-02-22T10:23:55.739Z,38.24
2023-02-22T10:26:42.791Z,38.71
2023-02-22T10:29:12.338Z,38.11
2023-02-22T10:31:46.407Z,37.17
2023-02-22T10:34:17.167Z,36.64
2023-02-22T10:36:47.774Z,36.69
2023-02-22T10:39:35.257Z,36.28
2023-02-22T10:42:08.289Z,36.04
2023-02-22T10:44:40.602Z,36.13
2023-02-22T10:47:11.463Z,36.23
2023-02-22T10:49:42.333Z,35.80
2023-02-22T10:52:30.228Z,35.86
2023-02-22T10:55:14.033Z,35.87
2023-02-22T10:57:44.568Z,35.91
2023-02-22T11:00:26.349Z,35.79
2023-02-22T11:02:56.244Z,34.84
2023-02-22T11:05:38.486Z,33.84
2023-02-22T11:08:15.019Z,34.23
2023-02-22T11:10:43.355Z,34.08
2023-02-22T11:13:34.152Z,32.70
2023-02-22T11:16:19.254Z,33.64
2023-02-22T11:18:47.322Z,32.44
2023-02-22T11:21:22.835Z,32.56
2023-02-22T11:23:50.421Z,33.30
2023-02-22T11:26:20.468Z,32.36
2023-02-22T11:28:56.228Z,32.84
2023-02-22T11:31:32.121Z,33.05
2023-02-22T11:34:03.937Z,33.34
2023-02-22T11:36:40.607Z,34.55
2023-02-22T11:39:22.716Z,32.71
2023-02-22T11:41:51.864Z,32.54
2023-02-22T11:44:30.991Z,32.76
2023-02-22T11:47:06.779Z,33.25
2023-02-22T11:49:38.989Z,32.38
2023-02-22T11:52:29.144Z,31.69
2023-02-22T11:54:58.672Z,31.88
2023-02-22T11:57:37.071Z,32.11
2023-02-22T12:00:07.675Z,31.96
2023-02-22T12:03:10.266Z,31.50
2023-02-22T12:05:40.607Z,31.45
2023-02-22T12:08:20.074Z,31.37
2023-02-22T12:11:18.314Z,31.74
2023-02-22T12:14:12.801Z,31.12
2023-02-22T12:16:50.909Z,31.18
2023-02-22T12:19:22.128Z,31.11
2023-02-22T12:21:56.568Z,31.12
2023-02-22T12:24:30.513Z,31.30
2023-02-22T12:27:02.202Z,31.04
2023-02-22T12:29:38.516Z,31.37
2023-02-22T12:32:12.242Z,31.12
2023-02-22T12:34:47.630Z,30.87
2023-02-22T12:37:35.891Z,31.26
2023-02-22T12:40:13.561Z,32.46
2023-02-22T12:42:47.729Z,32.08
2023-02-22T12:45:40.991Z,32.18
2023-02-22T12:48:25.135Z,32.19
2023-02-22T12:51:18.608Z,32.22
2023-02-22T12:53:55.621Z,31.00
2023-02-22T12:56:31.978Z,30.11
2023-02-22T12:59:12.549Z,30.87
2023-02-22T13:01:43.046Z,31.36
2023-02-22T13:04:20.611Z,31.49
2023-02-22T13:07:04.803Z,31.17
2023-02-22T13:09:43.156Z,30.21
2023-02-22T13:12:36.370Z,30.79
2023-02-22T13:15:25.790Z,30.77
2023-02-22T13:18:25.474Z,30.58
2023-02-22T13:21:28.029Z,30.76
2023-02-22T13:24:03.650Z,31.15
2023-02-22T13:26:45.430Z,31.16
2023-02-22T13:29:17.993Z,30.86
2023-02-22T13:32:09.634Z,31.07
2023-02-22T13:35:21.479Z,31.39
2023-02-22T13:38:25.288Z,30.84
2023-02-22T13:41:12.126Z,30.80
2023-02-22T13:43:41.504Z,30.30
2023-02-22T13:46:08.123Z,30.70
2023-02-22T13:48:44.892Z,30.34
2023-02-22T13:51:33.005Z,30.72
2023-02-22T13:54:09.529Z,30.43
2023-02-22T13:56:36.303Z,30.71
2023-02-22T13:59:04.790Z,30.88
2023-02-22T14:01:49.122Z,31.20
2023-02-22T14:04:42.281Z,31.10
2023-02-22T14:07:25.137Z,30.49
2023-02-22T14:09:56.570Z,30.52
2023-02-22T14:12:35.084Z,30.22
2023-02-22T14:15:27.769Z,29.34
2023-02-22T14:18:01.155Z,31.78
2023-02-22T14:20:35.150Z,32.97
2023-02-22T14:23:43.122Z,32.38
2023-02-22T14:26:31.749Z,31.63
2023-02-22T14:29:21.725Z,31.19
2023-02-22T14:31:50.067Z,30.21
2023-02-22T14:34:18.948Z,30.14
2023-02-22T14:36:54.615Z,29.87
2023-02-22T14:39:39.473Z,30.69
2023-02-22T14:42:08.358Z,31.00
2023-02-22T14:44:41.960Z,31.09
2023-02-22T14:47:20.150Z,31.95
2023-02-22T14:49:49.492Z,33.04
2023-02-22T14:52:24.474Z,33.59
2023-02-22T14:55:17.808Z,34.11
2023-02-22T14:57:48.420Z,34.13
2023-02-22T15:00:23.249Z,34.82
2023-02-22T15:02:57.346Z,34.52
2023-02-22T15:05:24.148Z,35.15
2023-02-22T15:07:56.466Z,35.37
2023-02-22T15:10:38.644Z,35.31
2023-02-22T15:13:13.073Z,35.30
2023-02-22T15:15:47.456Z,35.53
2023-02-22T15:18:43.200Z,35.92
2023-02-22T15:21:17.847Z,36.08
2023-02-22T15:23:55.201Z,36.06
2023-02-22T15:26:37.434Z,36.33
2023-02-22T15:29:18.523Z,36.33
2023-02-22T15:31:48.307Z,36.46
2023-02-22T15:34:15.377Z,36.95
2023-02-22T15:36:43.633Z,36.94
2023-02-22T15:39:25.645Z,37.36
2023-02-22T15:42:19.375Z,37.42
2023-02-22T15:44:48.023Z,37.86
2023-02-22T15:47:27.480Z,38.06
2023-02-22T15:50:25.953Z,38.39
2023-02-22T15:53:00.732Z,38.49
2023-02-22T15:55:32.655Z,38.53
2023-02-22T15:58:15.997Z,39.17
2023-02-22T16:00:51.276Z,39.26
2023-02-22T16:03:28.292Z,39.44
2023-02-22T16:05:57.062Z,39.75
2023-02-22T16:08:31.250Z,40.12
2023-02-22T16:11:35.224Z,40.39
2023-02-22T16:14:05.942Z,40.42
2023-02-22T16:16:35.549Z,40.90
2023-02-22T16:19:37.262Z,41.03
2023-02-22T16:22:10.382Z,41.37
2023-02-22T16:24:37.531Z,42.26
2023-02-22T16:27:13.041Z,41.97
2023-02-22T16:29:39.744Z,42.14
2023-02-22T16:32:06.519Z,42.37
2023-02-22T16:34:33.146Z,42.93
2023-02-22T16:36:59.738Z,43.32
2023-02-22T16:39:27.640Z,43.44
2023-02-22T16:41:57.012Z,43.79
2023-02-22T16:44:27.438Z,43.99
2023-02-22T16:46:59.772Z,44.45
2023-02-22T16:49:26.669Z,44.65
2023-02-22T16:51:56.080Z,44.80
2023-02-22T16:54:29.431Z,45.09
2023-02-22T16:56:57.601Z,45.26
2023-02-22T16:59:24.167Z,45.73
2023-02-22T17:01:50.873Z,45.85
2023-02-22T17:04:28.772Z,46.11
2023-02-22T17:06:55.379Z,46.44
2023-02-22T17:09:22.215Z,46.30
2023-02-22T17:11:51.511Z,46.21
2023-02-22T17:14:23.162Z,47.08
2023-02-22T17:16:53.125Z,46.65
2023-02-22T17:19:22.802Z,46.86
2023-02-22T17:21:49.905Z,46.90
2023-02-22T17:24:29.233Z,47.35
2023-02-22T17:26:57.523Z,46.93
2023-02-22T17:29:24.484Z,47.20
2023-02-22T17:31:52.591Z,47.45
2023-02-22T17:34:19.288Z,47.71
2023-02-22T17:36:46.088Z,47.67
2023-02-22T17:39:13.564Z,47.93
2023-02-22T17:41:40.802Z,47.81
2023-02-22T17:44:07.728Z,48.04
2023-02-22T17:46:36.137Z,48.30
2023-02-22T17:49:03.413Z,48.70
2023-02-22T17:51:30.077Z,49.16
2023-02-22T17:53:56.674Z,49.50
2023-02-22T17:56:23.312Z,50.36
2023-02-22T17:58:53.607Z,50.55
2023-02-22T18:01:29.385Z,51.19
2023-02-22T18:04:01.447Z,51.82
2023-02-22T18:06:32.717Z,52.09
2023-02-22T18:09:00.839Z,52.38
2023-02-22T18:11:28.971Z,52.62
2023-02-22T18:13:57.202Z,52.71
2023-02-22T18:16:27.750Z,53.07
2023-02-22T18:18:55.779Z,53.05
2023-02-22T18:21:23.552Z,52.95
2023-02-22T18:23:50.204Z,54.05
2023-02-22T18:26:19.890Z,53.05
2023-02-22T18:28:48.741Z,53.18
2023-02-22T18:31:20.325Z,52.98
2023-02-22T18:33:49.600Z,52.93
2023-02-22T18:36:17.630Z,53.37
2023-02-22T18:38:44.976Z,53.12
2023-02-22T18:41:14.231Z,53.57
2023-02-22T18:43:41.064Z,53.90
2023-02-22T18:46:14.432Z,53.37
2023-02-22T18:48:41.189Z,53.37
2023-02-22T18:51:10.744Z,53.59
2023-02-22T18:53:39.197Z,53.67
2023-02-22T18:56:08.585Z,54.13
2023-02-22T18:58:36.160Z,53.88
2023-02-22T19:01:03.855Z,53.92
2023-02-22T19:03:30.645Z,53.89
2023-02-22T19:06:06.640Z,54.02
2023-02-22T19:08:33.247Z,55.01
2023-02-22T19:11:04.566Z,55.02
2023-02-22T19:13:32.257Z,55.00
2023-02-22T19:16:02.486Z,55.80
2023-02-22T19:18:30.722Z,55.49
2023-02-22T19:21:02.437Z,55.83
2023-02-22T19:23:34.234Z,55.89
2023-02-22T19:26:02.432Z,55.93
2023-02-22T19:28:34.068Z,56.14
2023-02-22T19:31:19.339Z,57.51
2023-02-22T19:33:50.974Z,57.15
2023-02-22T19:36:18.810Z,57.43
2023-02-22T19:38:45.627Z,57.74
2023-02-22T19:41:21.865Z,58.68
2023-02-22T19:43:50.612Z,58.74
2023-02-22T19:46:21.459Z,58.13
2023-02-22T19:48:52.490Z,57.87
2023-02-22T19:51:21.269Z,58.18
2023-02-22T19:53:47.925Z,58.53
2023-02-22T19:56:17.544Z,58.49
2023-02-22T19:58:46.200Z,59.13
2023-02-22T20:01:13.367Z,59.68
2023-02-22T20:03:42.140Z,60.99
2023-02-22T20:06:10.617Z,61.55
2023-02-22T20:08:42.139Z,62.71
2023-02-22T20:11:10.632Z,62.85
2023-02-22T20:13:41.253Z,64.19
2023-02-22T20:16:09.978Z,65.04
2023-02-22T20:18:37.093Z,66.04
2023-02-22T20:21:09.326Z,66.76
2023-02-22T20:23:36.126Z,67.35
2023-02-22T20:26:02.969Z,67.95
2023-02-22T20:28:30.019Z,70.27
2023-02-22T20:30:56.645Z,70.52
2023-02-22T20:33:23.722Z,70.45
2023-02-22T20:35:50.405Z,71.34
2023-02-22T20:38:19.289Z,71.19
2023-02-22T20:40:46.867Z,70.79
2023-02-22T20:43:13.549Z,70.20
2023-02-22T20:45:40.236Z,71.16
2023-02-22T20:48:06.966Z,69.87
2023-02-22T20:50:35.444Z,69.60
2023-02-22T20:53:02.058Z,69.25
2023-02-22T20:55:28.784Z,69.84
2023-02-22T20:57:55.363Z,69.01
2023-02-22T21:00:22.161Z,68.70
2023-02-22T21:02:48.830Z,69.29
2023-02-22T21:05:15.611Z,69.66
2023-02-22T21:07:42.386Z,69.38
2023-02-22T21:10:09.146Z,69.43
2023-02-22T21:12:35.984Z,69.56
2023-02-22T21:15:02.721Z,70.10
2023-02-22T21:17:30.870Z,71.00
2023-02-22T21:19:58.469Z,73.14
2023-02-22T21:22:25.725Z,72.74
2023-02-22T21:24:52.379Z,74.86
2023-02-22T21:27:19.147Z,73.98
2023-02-22T21:29:45.816Z,75.53
2023-02-22T21:32:13.803Z,75.21
2023-02-22T21:34:40.818Z,75.68
2023-02-22T21:37:08.338Z,77.81
2023-02-22T21:39:35.488Z,77.43
2023-02-22T21:42:02.667Z,77.53
2023-02-22T21:44:30.056Z,79.55
2023-02-22T21:46:57.245Z,78.58
2023-02-22T21:49:25.046Z,80.57
2023-02-22T21:51:52.626Z,79.76
2023-02-22T21:54:19.852Z,79.18
2023-02-22T21:56:46.618Z,77.82
2023-02-22T21:59:18.898Z,76.66
2023-02-22T22:01:47.219Z,77.15
2023-02-22T22:04:19.054Z,78.08
2023-02-22T22:06:51.178Z,81.86
2023-02-22T22:09:18.640Z,82.22
2023-02-22T22:12:00.505Z,85.33
2023-02-22T22:14:28.187Z,87.81
2023-02-22T22:17:00.275Z,90.23
2023-02-22T22:19:29.366Z,92.36
2023-02-22T22:21:57.456Z,96.29
2023-02-22T22:24:24.905Z,100.00
2023-02-22T22:26:54.621Z,100.00
2023-02-22T22:29:23.738Z,98.57
2023-02-22T22:31:51.736Z,97.95
2023-02-22T22:34:19.502Z,98.36
2023-02-22T22:36:46.757Z,98.32
2023-02-22T22:39:13.822Z,99.15
2023-02-22T22:41:44.110Z,98.22
2023-02-22T22:44:12.224Z,97.81
2023-02-22T22:46:41.832Z,98.71
2023-02-22T22:49:12.739Z,100.00
2023-02-22T22:51:42.943Z,100.00
2023-02-22T22:54:10.481Z,99.82
2023-02-22T22:56:38.685Z,98.79
2023-02-22T22:59:07.838Z,98.95
2023-02-22T23:01:39.412Z,100.00
2023-02-22T23:04:09.469Z,100.00
2023-02-22T23:06:41.738Z,100.00
2023-02-22T23:09:21.689Z,100.00
2023-02-22T23:11:53.800Z,100.00
2023-02-22T23:14:26.651Z,100.00
2023-02-22T23:17:03.222Z,100.00
2023-02-22T23:19:31.085Z,100.00
2023-02-22T23:21:59.210Z,100.00
2023-02-22T23:24:29.070Z,100.00
2023-02-22T23:26:59.929Z,100.00
2023-02-22T23:29:28.798Z,100.00
2023-02-22T23:31:55.862Z,100.00
2023-02-22T23:34:23.241Z,100.00
2023-02-22T23:36:54.253Z,100.00
2023-02-22T23:39:22.458Z,100.00
2023-02-22T23:41:59.412Z,100.00
2023-02-22T23:44:27.483Z,100.00
2023-02-22T23:46:57.319Z,100.00
2023-02-22T23:49:27.154Z,100.00
2023-02-22T23:51:54.524Z,100.00
2023-02-22T23:54:21.689Z,100.00
2023-02-22T23:56:57.627Z,100.00
2023-02-22T23:59:28.571Z,100.00
